sensor_id;sensor_type;location;lat;lon;timestamp;P1;durP1;ratioP1;P2;durP2;ratioP2
25982;SDS011;13773;48.868;10.730;2023-12-20T00:02:19;7.43;;;5.20;;
25982;SDS011;13773;48.868;10.730;2023-12-20T00:04:45;6.60;;;5.50;;
25982;SDS011;13773;48.868;10.730;2023-12-20T00:07:11;7.50;;;5.60;;
25982;SDS011;13773;48.868;10.730;2023-12-20T00:09:36;7.10;;;5.07;;
25982;SDS011;13773;48.868;10.730;2023-12-20T00:12:02;7.10;;;5.30;;
25982;SDS011;13773;48.868;10.730;2023-12-20T00:14:28;6.97;;;5.73;;
25982;SDS011;13773;48.868;10.730;2023-12-20T00:16:53;8.47;;;5.93;;
25982;SDS011;13773;48.868;10.730;2023-12-20T00:19:19;8.00;;;5.77;;
25982;SDS011;13773;48.868;10.730;2023-12-20T00:21:45;7.50;;;5.60;;
25982;SDS011;13773;48.868;10.730;2023-12-20T00:24:10;7.53;;;5.47;;
25982;SDS011;13773;48.868;10.730;2023-12-20T00:26:36;7.90;;;6.03;;
25982;SDS011;13773;48.868;10.730;2023-12-20T00:29:02;6.63;;;5.23;;
25982;SDS011;13773;48.868;10.730;2023-12-20T00:31:27;6.87;;;5.53;;
25982;SDS011;13773;48.868;10.730;2023-12-20T00:33:53;6.33;;;5.17;;
25982;SDS011;13773;48.868;10.730;2023-12-20T00:36:19;5.97;;;5.37;;
25982;SDS011;13773;48.868;10.730;2023-12-20T00:38:45;7.17;;;5.77;;
25982;SDS011;13773;48.868;10.730;2023-12-20T00:41:11;6.37;;;5.27;;
25982;SDS011;13773;48.868;10.730;2023-12-20T00:43:36;7.80;;;5.47;;
25982;SDS011;13773;48.868;10.730;2023-12-20T00:46:02;6.27;;;5.67;;
25982;SDS011;13773;48.868;10.730;2023-12-20T00:48:28;7.10;;;5.43;;
25982;SDS011;13773;48.868;10.730;2023-12-20T00:50:55;7.53;;;4.80;;
25982;SDS011;13773;48.868;10.730;2023-12-20T00:53:21;6.87;;;5.50;;
25982;SDS011;13773;48.868;10.730;2023-12-20T00:55:46;6.43;;;5.37;;
25982;SDS011;13773;48.868;10.730;2023-12-20T00:58:12;8.23;;;5.50;;
25982;SDS011;13773;48.868;10.730;2023-12-20T01:00:40;7.53;;;5.20;;
25982;SDS011;13773;48.868;10.730;2023-12-20T01:03:07;6.60;;;5.00;;
25982;SDS011;13773;48.868;10.730;2023-12-20T01:05:32;6.83;;;4.93;;
25982;SDS011;13773;48.868;10.730;2023-12-20T01:07:58;6.33;;;4.83;;
25982;SDS011;13773;48.868;10.730;2023-12-20T01:10:24;6.23;;;5.17;;
25982;SDS011;13773;48.868;10.730;2023-12-20T01:12:53;6.87;;;5.00;;
25982;SDS011;13773;48.868;10.730;2023-12-20T01:15:18;6.70;;;4.93;;
25982;SDS011;13773;48.868;10.730;2023-12-20T01:17:44;6.20;;;5.10;;
25982;SDS011;13773;48.868;10.730;2023-12-20T01:20:10;6.50;;;4.57;;
25982;SDS011;13773;48.868;10.730;2023-12-20T01:22:36;5.03;;;4.40;;
25982;SDS011;13773;48.868;10.730;2023-12-20T01:25:01;6.87;;;5.00;;
25982;SDS011;13773;48.868;10.730;2023-12-20T01:27:27;6.20;;;4.90;;
25982;SDS011;13773;48.868;10.730;2023-12-20T01:29:54;5.50;;;4.60;;
25982;SDS011;13773;48.868;10.730;2023-12-20T01:32:19;6.77;;;5.70;;
25982;SDS011;13773;48.868;10.730;2023-12-20T01:34:45;5.87;;;4.70;;
25982;SDS011;13773;48.868;10.730;2023-12-20T01:37:11;6.17;;;4.60;;
25982;SDS011;13773;48.868;10.730;2023-12-20T01:39:36;5.90;;;5.00;;
25982;SDS011;13773;48.868;10.730;2023-12-20T01:42:02;6.30;;;5.40;;
25982;SDS011;13773;48.868;10.730;2023-12-20T01:44:28;5.13;;;4.50;;
25982;SDS011;13773;48.868;10.730;2023-12-20T01:46:54;7.10;;;5.63;;
25982;SDS011;13773;48.868;10.730;2023-12-20T01:49:20;6.23;;;5.17;;
25982;SDS011;13773;48.868;10.730;2023-12-20T01:51:46;7.27;;;5.23;;
25982;SDS011;13773;48.868;10.730;2023-12-20T01:54:12;9.30;;;4.80;;
25982;SDS011;13773;48.868;10.730;2023-12-20T01:56:38;6.67;;;5.17;;
25982;SDS011;13773;48.868;10.730;2023-12-20T01:59:05;5.83;;;5.07;;
25982;SDS011;13773;48.868;10.730;2023-12-20T02:01:32;7.30;;;5.67;;
25982;SDS011;13773;48.868;10.730;2023-12-20T02:03:58;6.53;;;4.93;;
25982;SDS011;13773;48.868;10.730;2023-12-20T02:06:25;7.73;;;5.23;;
25982;SDS011;13773;48.868;10.730;2023-12-20T02:08:57;6.23;;;5.23;;
25982;SDS011;13773;48.868;10.730;2023-12-20T02:11:23;7.13;;;4.90;;
25982;SDS011;13773;48.868;10.730;2023-12-20T02:13:50;7.83;;;5.73;;
25982;SDS011;13773;48.868;10.730;2023-12-20T02:16:16;7.50;;;5.60;;
25982;SDS011;13773;48.868;10.730;2023-12-20T02:18:42;7.20;;;5.07;;
25982;SDS011;13773;48.868;10.730;2023-12-20T02:21:09;6.83;;;5.67;;
25982;SDS011;13773;48.868;10.730;2023-12-20T02:23:35;6.73;;;5.00;;
25982;SDS011;13773;48.868;10.730;2023-12-20T02:26:01;6.23;;;5.23;;
25982;SDS011;13773;48.868;10.730;2023-12-20T02:28:28;6.57;;;5.40;;
25982;SDS011;13773;48.868;10.730;2023-12-20T02:30:54;6.63;;;5.10;;
25982;SDS011;13773;48.868;10.730;2023-12-20T02:33:19;7.27;;;4.87;;
25982;SDS011;13773;48.868;10.730;2023-12-20T02:35:45;5.77;;;5.10;;
25982;SDS011;13773;48.868;10.730;2023-12-20T02:38:11;5.93;;;4.93;;
25982;SDS011;13773;48.868;10.730;2023-12-20T02:40:36;6.80;;;5.20;;
25982;SDS011;13773;48.868;10.730;2023-12-20T02:43:02;6.87;;;5.13;;
25982;SDS011;13773;48.868;10.730;2023-12-20T02:45:28;6.83;;;5.47;;
25982;SDS011;13773;48.868;10.730;2023-12-20T02:47:53;8.93;;;5.53;;
25982;SDS011;13773;48.868;10.730;2023-12-20T02:50:19;6.30;;;5.27;;
25982;SDS011;13773;48.868;10.730;2023-12-20T02:52:45;6.70;;;5.30;;
25982;SDS011;13773;48.868;10.730;2023-12-20T02:55:11;7.37;;;5.13;;
25982;SDS011;13773;48.868;10.730;2023-12-20T02:57:36;7.00;;;5.53;;
25982;SDS011;13773;48.868;10.730;2023-12-20T03:00:06;6.80;;;5.40;;
25982;SDS011;13773;48.868;10.730;2023-12-20T03:02:34;7.00;;;5.60;;
25982;SDS011;13773;48.868;10.730;2023-12-20T03:05:00;7.30;;;5.60;;
25982;SDS011;13773;48.868;10.730;2023-12-20T03:07:25;7.30;;;5.90;;
25982;SDS011;13773;48.868;10.730;2023-12-20T03:09:51;6.93;;;5.83;;
25982;SDS011;13773;48.868;10.730;2023-12-20T03:12:17;8.93;;;5.93;;
25982;SDS011;13773;48.868;10.730;2023-12-20T03:14:43;7.73;;;5.60;;
25982;SDS011;13773;48.868;10.730;2023-12-20T03:17:09;7.33;;;5.70;;
25982;SDS011;13773;48.868;10.730;2023-12-20T03:19:35;6.37;;;5.67;;
25982;SDS011;13773;48.868;10.730;2023-12-20T03:22:00;8.33;;;5.37;;
25982;SDS011;13773;48.868;10.730;2023-12-20T03:24:26;5.40;;;4.80;;
25982;SDS011;13773;48.868;10.730;2023-12-20T03:26:52;6.80;;;4.80;;
25982;SDS011;13773;48.868;10.730;2023-12-20T03:29:18;5.63;;;4.60;;
25982;SDS011;13773;48.868;10.730;2023-12-20T03:31:44;7.87;;;4.97;;
25982;SDS011;13773;48.868;10.730;2023-12-20T03:34:10;6.30;;;4.30;;
25982;SDS011;13773;48.868;10.730;2023-12-20T03:36:36;5.50;;;4.10;;
25982;SDS011;13773;48.868;10.730;2023-12-20T03:39:02;4.40;;;3.87;;
25982;SDS011;13773;48.868;10.730;2023-12-20T03:41:27;4.67;;;3.83;;
25982;SDS011;13773;48.868;10.730;2023-12-20T03:43:53;5.60;;;4.07;;
25982;SDS011;13773;48.868;10.730;2023-12-20T03:46:19;5.60;;;4.30;;
25982;SDS011;13773;48.868;10.730;2023-12-20T03:48:44;5.73;;;4.43;;
25982;SDS011;13773;48.868;10.730;2023-12-20T03:51:10;4.80;;;3.97;;
25982;SDS011;13773;48.868;10.730;2023-12-20T03:53:36;5.17;;;4.20;;
25982;SDS011;13773;48.868;10.730;2023-12-20T03:56:01;5.53;;;4.40;;
25982;SDS011;13773;48.868;10.730;2023-12-20T03:58:27;5.43;;;4.37;;
25982;SDS011;13773;48.868;10.730;2023-12-20T04:00:53;5.93;;;4.27;;
25982;SDS011;13773;48.868;10.730;2023-12-20T04:03:19;4.37;;;3.63;;
25982;SDS011;13773;48.868;10.730;2023-12-20T04:05:44;3.10;;;2.37;;
25982;SDS011;13773;48.868;10.730;2023-12-20T04:08:10;3.77;;;2.23;;
25982;SDS011;13773;48.868;10.730;2023-12-20T04:10:36;2.17;;;1.93;;
25982;SDS011;13773;48.868;10.730;2023-12-20T04:13:02;1.77;;;1.63;;
25982;SDS011;13773;48.868;10.730;2023-12-20T04:15:28;2.27;;;1.87;;
25982;SDS011;13773;48.868;10.730;2023-12-20T04:17:54;2.13;;;1.97;;
25982;SDS011;13773;48.868;10.730;2023-12-20T04:20:19;2.40;;;2.20;;
25982;SDS011;13773;48.868;10.730;2023-12-20T04:22:45;5.80;;;2.80;;
25982;SDS011;13773;48.868;10.730;2023-12-20T04:25:11;3.73;;;3.00;;
25982;SDS011;13773;48.868;10.730;2023-12-20T04:27:36;3.60;;;2.83;;
25982;SDS011;13773;48.868;10.730;2023-12-20T04:30:02;3.03;;;2.60;;
25982;SDS011;13773;48.868;10.730;2023-12-20T04:32:28;2.10;;;1.93;;
25982;SDS011;13773;48.868;10.730;2023-12-20T04:34:54;1.77;;;1.63;;
25982;SDS011;13773;48.868;10.730;2023-12-20T04:37:20;1.40;;;1.30;;
25982;SDS011;13773;48.868;10.730;2023-12-20T04:39:45;1.40;;;1.20;;
25982;SDS011;13773;48.868;10.730;2023-12-20T04:42:11;1.40;;;1.30;;
25982;SDS011;13773;48.868;10.730;2023-12-20T04:44:37;1.27;;;1.17;;
25982;SDS011;13773;48.868;10.730;2023-12-20T04:47:02;1.03;;;0.93;;
25982;SDS011;13773;48.868;10.730;2023-12-20T04:49:28;0.90;;;0.90;;
25982;SDS011;13773;48.868;10.730;2023-12-20T04:51:54;1.23;;;1.03;;
25982;SDS011;13773;48.868;10.730;2023-12-20T04:54:20;1.87;;;1.00;;
25982;SDS011;13773;48.868;10.730;2023-12-20T04:56:46;1.10;;;1.00;;
25982;SDS011;13773;48.868;10.730;2023-12-20T04:59:12;1.37;;;1.00;;
25982;SDS011;13773;48.868;10.730;2023-12-20T05:01:38;0.90;;;0.90;;
25982;SDS011;13773;48.868;10.730;2023-12-20T05:04:04;1.23;;;1.00;;
25982;SDS011;13773;48.868;10.730;2023-12-20T05:06:29;4.80;;;1.30;;
25982;SDS011;13773;48.868;10.730;2023-12-20T05:08:55;1.20;;;0.90;;
25982;SDS011;13773;48.868;10.730;2023-12-20T05:11:21;1.53;;;1.13;;
25982;SDS011;13773;48.868;10.730;2023-12-20T05:13:46;1.00;;;0.93;;
25982;SDS011;13773;48.868;10.730;2023-12-20T05:16:12;1.10;;;1.00;;
25982;SDS011;13773;48.868;10.730;2023-12-20T05:18:39;1.60;;;0.93;;
25982;SDS011;13773;48.868;10.730;2023-12-20T05:21:05;1.20;;;1.10;;
25982;SDS011;13773;48.868;10.730;2023-12-20T05:23:31;1.37;;;1.20;;
25982;SDS011;13773;48.868;10.730;2023-12-20T05:25:56;1.93;;;1.00;;
25982;SDS011;13773;48.868;10.730;2023-12-20T05:28:23;2.30;;;0.90;;
25982;SDS011;13773;48.868;10.730;2023-12-20T05:30:49;1.43;;;1.07;;
25982;SDS011;13773;48.868;10.730;2023-12-20T05:33:15;1.27;;;1.10;;
25982;SDS011;13773;48.868;10.730;2023-12-20T05:35:40;1.17;;;1.07;;
25982;SDS011;13773;48.868;10.730;2023-12-20T05:38:06;1.10;;;1.00;;
25982;SDS011;13773;48.868;10.730;2023-12-20T05:40:32;1.17;;;1.07;;
25982;SDS011;13773;48.868;10.730;2023-12-20T05:42:57;1.10;;;1.00;;
25982;SDS011;13773;48.868;10.730;2023-12-20T05:45:23;1.10;;;1.00;;
25982;SDS011;13773;48.868;10.730;2023-12-20T05:47:49;1.27;;;1.00;;
25982;SDS011;13773;48.868;10.730;2023-12-20T05:50:14;1.30;;;1.00;;
25982;SDS011;13773;48.868;10.730;2023-12-20T05:52:40;0.80;;;0.80;;
25982;SDS011;13773;48.868;10.730;2023-12-20T05:55:06;1.00;;;0.93;;
25982;SDS011;13773;48.868;10.730;2023-12-20T05:57:32;1.20;;;0.90;;
25982;SDS011;13773;48.868;10.730;2023-12-20T05:59:57;1.30;;;1.20;;
25982;SDS011;13773;48.868;10.730;2023-12-20T06:02:23;1.37;;;1.00;;
25982;SDS011;13773;48.868;10.730;2023-12-20T06:04:48;1.13;;;1.00;;
25982;SDS011;13773;48.868;10.730;2023-12-20T06:07:14;1.23;;;1.03;;
25982;SDS011;13773;48.868;10.730;2023-12-20T06:09:40;1.23;;;0.90;;
25982;SDS011;13773;48.868;10.730;2023-12-20T06:12:06;1.13;;;0.93;;
25982;SDS011;13773;48.868;10.730;2023-12-20T06:14:33;1.10;;;1.00;;
25982;SDS011;13773;48.868;10.730;2023-12-20T06:16:59;1.40;;;1.07;;
25982;SDS011;13773;48.868;10.730;2023-12-20T06:19:26;1.10;;;0.90;;
25982;SDS011;13773;48.868;10.730;2023-12-20T06:21:52;1.30;;;1.20;;
25982;SDS011;13773;48.868;10.730;2023-12-20T06:24:17;1.00;;;0.90;;
25982;SDS011;13773;48.868;10.730;2023-12-20T06:26:44;1.00;;;0.90;;
25982;SDS011;13773;48.868;10.730;2023-12-20T06:29:10;1.40;;;1.00;;
25982;SDS011;13773;48.868;10.730;2023-12-20T06:31:35;1.03;;;0.93;;
25982;SDS011;13773;48.868;10.730;2023-12-20T06:34:01;0.80;;;0.80;;
25982;SDS011;13773;48.868;10.730;2023-12-20T06:36:27;1.40;;;1.10;;
25982;SDS011;13773;48.868;10.730;2023-12-20T06:38:52;1.80;;;1.10;;
25982;SDS011;13773;48.868;10.730;2023-12-20T06:41:18;1.10;;;1.00;;
25982;SDS011;13773;48.868;10.730;2023-12-20T06:43:44;0.93;;;0.90;;
25982;SDS011;13773;48.868;10.730;2023-12-20T06:46:10;1.00;;;0.93;;
25982;SDS011;13773;48.868;10.730;2023-12-20T06:48:36;0.90;;;0.90;;
25982;SDS011;13773;48.868;10.730;2023-12-20T06:51:02;1.20;;;1.10;;
25982;SDS011;13773;48.868;10.730;2023-12-20T06:53:27;1.47;;;1.30;;
25982;SDS011;13773;48.868;10.730;2023-12-20T06:55:53;1.20;;;1.10;;
25982;SDS011;13773;48.868;10.730;2023-12-20T06:58:21;1.20;;;1.00;;
25982;SDS011;13773;48.868;10.730;2023-12-20T07:00:46;0.90;;;0.90;;
25982;SDS011;13773;48.868;10.730;2023-12-20T07:03:12;1.50;;;1.40;;
25982;SDS011;13773;48.868;10.730;2023-12-20T07:05:38;1.50;;;1.30;;
25982;SDS011;13773;48.868;10.730;2023-12-20T07:08:04;1.50;;;1.40;;
25982;SDS011;13773;48.868;10.730;2023-12-20T07:10:30;1.40;;;1.30;;
25982;SDS011;13773;48.868;10.730;2023-12-20T07:12:55;1.50;;;1.23;;
25982;SDS011;13773;48.868;10.730;2023-12-20T07:15:22;1.40;;;1.30;;
25982;SDS011;13773;48.868;10.730;2023-12-20T07:17:48;1.30;;;1.20;;
25982;SDS011;13773;48.868;10.730;2023-12-20T07:20:13;1.40;;;1.30;;
25982;SDS011;13773;48.868;10.730;2023-12-20T07:22:39;1.40;;;1.30;;
25982;SDS011;13773;48.868;10.730;2023-12-20T07:25:05;1.50;;;1.40;;
25982;SDS011;13773;48.868;10.730;2023-12-20T07:27:31;1.40;;;1.30;;
25982;SDS011;13773;48.868;10.730;2023-12-20T07:29:57;1.60;;;1.50;;
25982;SDS011;13773;48.868;10.730;2023-12-20T07:32:23;1.50;;;1.40;;
25982;SDS011;13773;48.868;10.730;2023-12-20T07:34:48;1.70;;;1.60;;
25982;SDS011;13773;48.868;10.730;2023-12-20T07:37:14;1.60;;;1.50;;
25982;SDS011;13773;48.868;10.730;2023-12-20T07:39:40;1.60;;;1.50;;
25982;SDS011;13773;48.868;10.730;2023-12-20T07:42:06;1.60;;;1.33;;
25982;SDS011;13773;48.868;10.730;2023-12-20T07:44:32;1.97;;;1.50;;
25982;SDS011;13773;48.868;10.730;2023-12-20T07:46:58;1.47;;;1.37;;
25982;SDS011;13773;48.868;10.730;2023-12-20T07:49:24;1.77;;;1.47;;
25982;SDS011;13773;48.868;10.730;2023-12-20T07:51:49;1.47;;;1.37;;
25982;SDS011;13773;48.868;10.730;2023-12-20T07:54:15;2.00;;;1.80;;
25982;SDS011;13773;48.868;10.730;2023-12-20T07:56:41;3.23;;;2.53;;
25982;SDS011;13773;48.868;10.730;2023-12-20T07:59:07;2.27;;;2.07;;
25982;SDS011;13773;48.868;10.730;2023-12-20T08:01:32;1.50;;;1.40;;
25982;SDS011;13773;48.868;10.730;2023-12-20T08:03:58;1.93;;;1.60;;
25982;SDS011;13773;48.868;10.730;2023-12-20T08:06:23;1.60;;;1.50;;
25982;SDS011;13773;48.868;10.730;2023-12-20T08:08:49;1.70;;;1.60;;
25982;SDS011;13773;48.868;10.730;2023-12-20T08:11:15;2.00;;;1.57;;
25982;SDS011;13773;48.868;10.730;2023-12-20T08:13:41;2.40;;;2.17;;
25982;SDS011;13773;48.868;10.730;2023-12-20T08:16:06;2.20;;;2.00;;
25982;SDS011;13773;48.868;10.730;2023-12-20T08:18:32;2.07;;;1.87;;
25982;SDS011;13773;48.868;10.730;2023-12-20T08:20:58;2.23;;;2.03;;
25982;SDS011;13773;48.868;10.730;2023-12-20T08:23:25;2.40;;;2.20;;
25982;SDS011;13773;48.868;10.730;2023-12-20T08:25:50;2.70;;;2.30;;
25982;SDS011;13773;48.868;10.730;2023-12-20T08:28:16;2.47;;;2.27;;
25982;SDS011;13773;48.868;10.730;2023-12-20T08:30:42;2.80;;;1.97;;
25982;SDS011;13773;48.868;10.730;2023-12-20T08:33:07;3.00;;;2.07;;
25982;SDS011;13773;48.868;10.730;2023-12-20T08:35:37;2.53;;;2.33;;
25982;SDS011;13773;48.868;10.730;2023-12-20T08:38:06;2.17;;;1.83;;
25982;SDS011;13773;48.868;10.730;2023-12-20T08:40:32;2.40;;;2.20;;
25982;SDS011;13773;48.868;10.730;2023-12-20T08:42:57;2.60;;;2.37;;
25982;SDS011;13773;48.868;10.730;2023-12-20T08:45:23;2.37;;;2.17;;
25982;SDS011;13773;48.868;10.730;2023-12-20T08:47:49;2.43;;;2.10;;
25982;SDS011;13773;48.868;10.730;2023-12-20T08:50:15;2.60;;;2.40;;
25982;SDS011;13773;48.868;10.730;2023-12-20T08:52:41;2.73;;;2.00;;
25982;SDS011;13773;48.868;10.730;2023-12-20T08:55:07;2.50;;;2.30;;
25982;SDS011;13773;48.868;10.730;2023-12-20T08:57:34;2.40;;;2.20;;
25982;SDS011;13773;48.868;10.730;2023-12-20T09:00:00;3.10;;;2.70;;
25982;SDS011;13773;48.868;10.730;2023-12-20T09:02:26;3.37;;;2.90;;
25982;SDS011;13773;48.868;10.730;2023-12-20T09:04:51;3.23;;;2.93;;
25982;SDS011;13773;48.868;10.730;2023-12-20T09:07:23;3.93;;;3.47;;
25982;SDS011;13773;48.868;10.730;2023-12-20T09:09:50;3.80;;;3.40;;
25982;SDS011;13773;48.868;10.730;2023-12-20T09:12:17;4.50;;;3.80;;
25982;SDS011;13773;48.868;10.730;2023-12-20T09:14:44;4.30;;;3.90;;
25982;SDS011;13773;48.868;10.730;2023-12-20T09:17:14;6.27;;;4.43;;
25982;SDS011;13773;48.868;10.730;2023-12-20T09:19:41;4.87;;;4.30;;
25982;SDS011;13773;48.868;10.730;2023-12-20T09:22:08;4.40;;;3.90;;
25982;SDS011;13773;48.868;10.730;2023-12-20T09:24:34;4.73;;;4.30;;
25982;SDS011;13773;48.868;10.730;2023-12-20T09:27:00;4.43;;;4.03;;
25982;SDS011;13773;48.868;10.730;2023-12-20T09:29:26;5.07;;;4.57;;
25982;SDS011;13773;48.868;10.730;2023-12-20T09:31:52;4.20;;;3.80;;
25982;SDS011;13773;48.868;10.730;2023-12-20T09:34:18;4.37;;;3.83;;
25982;SDS011;13773;48.868;10.730;2023-12-20T09:36:43;5.07;;;4.57;;
25982;SDS011;13773;48.868;10.730;2023-12-20T09:39:21;5.67;;;5.10;;
25982;SDS011;13773;48.868;10.730;2023-12-20T09:42:05;4.73;;;4.23;;
25982;SDS011;13773;48.868;10.730;2023-12-20T09:44:32;4.67;;;4.07;;
25982;SDS011;13773;48.868;10.730;2023-12-20T09:46:59;4.40;;;4.00;;
25982;SDS011;13773;48.868;10.730;2023-12-20T09:49:30;4.97;;;4.20;;
25982;SDS011;13773;48.868;10.730;2023-12-20T09:51:57;4.20;;;3.80;;
25982;SDS011;13773;48.868;10.730;2023-12-20T09:54:24;4.73;;;4.30;;
25982;SDS011;13773;48.868;10.730;2023-12-20T09:56:51;4.53;;;4.00;;
25982;SDS011;13773;48.868;10.730;2023-12-20T09:59:17;5.83;;;3.90;;
25982;SDS011;13773;48.868;10.730;2023-12-20T10:01:43;4.03;;;3.63;;
25982;SDS011;13773;48.868;10.730;2023-12-20T10:04:09;4.40;;;4.00;;
25982;SDS011;13773;48.868;10.730;2023-12-20T10:06:40;4.73;;;4.33;;
25982;SDS011;13773;48.868;10.730;2023-12-20T10:09:07;4.67;;;4.27;;
25982;SDS011;13773;48.868;10.730;2023-12-20T10:11:35;6.07;;;4.73;;
25982;SDS011;13773;48.868;10.730;2023-12-20T10:14:02;5.80;;;4.37;;
25982;SDS011;13773;48.868;10.730;2023-12-20T10:16:28;5.63;;;4.97;;
25982;SDS011;13773;48.868;10.730;2023-12-20T10:18:56;5.73;;;4.87;;
25982;SDS011;13773;48.868;10.730;2023-12-20T10:21:22;5.50;;;5.00;;
25982;SDS011;13773;48.868;10.730;2023-12-20T10:23:48;6.00;;;5.40;;
25982;SDS011;13773;48.868;10.730;2023-12-20T10:26:23;5.13;;;4.63;;
25982;SDS011;13773;48.868;10.730;2023-12-20T10:28:54;5.50;;;5.00;;
25982;SDS011;13773;48.868;10.730;2023-12-20T10:31:34;4.50;;;4.10;;
25982;SDS011;13773;48.868;10.730;2023-12-20T10:34:02;7.67;;;4.10;;
25982;SDS011;13773;48.868;10.730;2023-12-20T10:36:32;5.27;;;4.23;;
25982;SDS011;13773;48.868;10.730;2023-12-20T10:38:58;3.80;;;3.50;;
25982;SDS011;13773;48.868;10.730;2023-12-20T10:41:25;4.27;;;3.57;;
25982;SDS011;13773;48.868;10.730;2023-12-20T10:43:53;3.53;;;3.17;;
25982;SDS011;13773;48.868;10.730;2023-12-20T10:46:37;3.40;;;3.10;;
25982;SDS011;13773;48.868;10.730;2023-12-20T10:49:06;4.07;;;3.20;;
25982;SDS011;13773;48.868;10.730;2023-12-20T10:51:33;3.10;;;2.80;;
25982;SDS011;13773;48.868;10.730;2023-12-20T10:54:00;2.80;;;2.60;;
25982;SDS011;13773;48.868;10.730;2023-12-20T10:56:26;3.07;;;2.83;;
25982;SDS011;13773;48.868;10.730;2023-12-20T10:58:57;2.63;;;2.43;;
25982;SDS011;13773;48.868;10.730;2023-12-20T11:01:26;2.57;;;2.37;;
25982;SDS011;13773;48.868;10.730;2023-12-20T11:03:53;2.83;;;2.37;;
25982;SDS011;13773;48.868;10.730;2023-12-20T11:07:04;2.33;;;1.57;;
25982;SDS011;13773;48.868;10.730;2023-12-20T11:14:42;2.83;;;1.50;;
25982;SDS011;13773;48.868;10.730;2023-12-20T11:17:13;3.50;;;1.70;;
25982;SDS011;13773;48.868;10.730;2023-12-20T11:22:22;2.50;;;1.90;;
25982;SDS011;13773;48.868;10.730;2023-12-20T11:24:50;5.43;;;1.90;;
25982;SDS011;13773;48.868;10.730;2023-12-20T11:27:17;3.50;;;1.57;;
25982;SDS011;13773;48.868;10.730;2023-12-20T11:29:48;3.67;;;1.80;;
25982;SDS011;13773;48.868;10.730;2023-12-20T11:34:50;3.30;;;2.10;;
25982;SDS011;13773;48.868;10.730;2023-12-20T11:37:19;3.33;;;1.70;;
25982;SDS011;13773;48.868;10.730;2023-12-20T11:39:45;2.47;;;2.00;;
25982;SDS011;13773;48.868;10.730;2023-12-20T11:42:19;2.13;;;1.40;;
25982;SDS011;13773;48.868;10.730;2023-12-20T11:44:45;5.80;;;1.90;;
25982;SDS011;13773;48.868;10.730;2023-12-20T11:47:12;5.87;;;2.13;;
25982;SDS011;13773;48.868;10.730;2023-12-20T11:49:38;4.03;;;1.40;;
25982;SDS011;13773;48.868;10.730;2023-12-20T11:52:05;3.87;;;1.70;;
25982;SDS011;13773;48.868;10.730;2023-12-20T11:54:31;2.60;;;2.40;;
25982;SDS011;13773;48.868;10.730;2023-12-20T11:56:57;4.00;;;1.97;;
25982;SDS011;13773;48.868;10.730;2023-12-20T11:59:23;2.07;;;1.67;;
25982;SDS011;13773;48.868;10.730;2023-12-20T12:01:49;4.90;;;1.80;;
25982;SDS011;13773;48.868;10.730;2023-12-20T12:04:15;7.93;;;2.80;;
25982;SDS011;13773;48.868;10.730;2023-12-20T12:06:42;3.47;;;2.07;;
25982;SDS011;13773;48.868;10.730;2023-12-20T12:09:09;2.90;;;2.10;;
25982;SDS011;13773;48.868;10.730;2023-12-20T12:11:35;2.70;;;1.77;;
25982;SDS011;13773;48.868;10.730;2023-12-20T12:14:01;6.90;;;2.10;;
25982;SDS011;13773;48.868;10.730;2023-12-20T12:16:26;5.00;;;1.87;;
25982;SDS011;13773;48.868;10.730;2023-12-20T12:18:56;3.70;;;1.73;;
25982;SDS011;13773;48.868;10.730;2023-12-20T12:21:22;2.50;;;1.80;;
25982;SDS011;13773;48.868;10.730;2023-12-20T12:23:48;2.67;;;1.70;;
25982;SDS011;13773;48.868;10.730;2023-12-20T12:26:13;4.10;;;2.03;;
25982;SDS011;13773;48.868;10.730;2023-12-20T12:28:40;4.80;;;1.83;;
25982;SDS011;13773;48.868;10.730;2023-12-20T12:31:06;2.00;;;1.77;;
25982;SDS011;13773;48.868;10.730;2023-12-20T12:33:33;2.80;;;1.53;;
25982;SDS011;13773;48.868;10.730;2023-12-20T12:35:59;2.20;;;1.60;;
25982;SDS011;13773;48.868;10.730;2023-12-20T12:38:26;3.40;;;1.77;;
25982;SDS011;13773;48.868;10.730;2023-12-20T12:40:52;6.87;;;2.00;;
25982;SDS011;13773;48.868;10.730;2023-12-20T12:43:19;3.03;;;1.70;;
25982;SDS011;13773;48.868;10.730;2023-12-20T12:45:45;4.13;;;1.87;;
25982;SDS011;13773;48.868;10.730;2023-12-20T12:48:11;4.80;;;1.80;;
25982;SDS011;13773;48.868;10.730;2023-12-20T12:50:37;8.97;;;1.70;;
25982;SDS011;13773;48.868;10.730;2023-12-20T12:53:02;6.43;;;2.10;;
25982;SDS011;13773;48.868;10.730;2023-12-20T12:55:28;11.83;;;3.10;;
25982;SDS011;13773;48.868;10.730;2023-12-20T12:57:54;4.27;;;1.53;;
25982;SDS011;13773;48.868;10.730;2023-12-20T13:00:20;2.67;;;1.70;;
25982;SDS011;13773;48.868;10.730;2023-12-20T13:02:46;1.77;;;1.43;;
25982;SDS011;13773;48.868;10.730;2023-12-20T13:05:12;3.57;;;1.60;;
25982;SDS011;13773;48.868;10.730;2023-12-20T13:07:38;3.70;;;1.30;;
25982;SDS011;13773;48.868;10.730;2023-12-20T13:10:04;3.83;;;1.87;;
25982;SDS011;13773;48.868;10.730;2023-12-20T13:12:31;4.10;;;1.73;;
25982;SDS011;13773;48.868;10.730;2023-12-20T13:14:57;4.93;;;1.90;;
25982;SDS011;13773;48.868;10.730;2023-12-20T13:17:23;3.63;;;1.60;;
25982;SDS011;13773;48.868;10.730;2023-12-20T13:19:49;3.23;;;1.47;;
25982;SDS011;13773;48.868;10.730;2023-12-20T13:22:14;4.03;;;1.80;;
25982;SDS011;13773;48.868;10.730;2023-12-20T13:24:41;2.50;;;1.30;;
25982;SDS011;13773;48.868;10.730;2023-12-20T13:27:09;4.13;;;1.30;;
25982;SDS011;13773;48.868;10.730;2023-12-20T13:29:35;6.80;;;1.90;;
25982;SDS011;13773;48.868;10.730;2023-12-20T13:32:00;7.03;;;1.60;;
25982;SDS011;13773;48.868;10.730;2023-12-20T13:34:28;2.27;;;1.43;;
25982;SDS011;13773;48.868;10.730;2023-12-20T13:36:54;4.40;;;1.37;;
25982;SDS011;13773;48.868;10.730;2023-12-20T13:39:21;5.03;;;1.67;;
25982;SDS011;13773;48.868;10.730;2023-12-20T13:41:47;4.67;;;1.73;;
25982;SDS011;13773;48.868;10.730;2023-12-20T13:44:12;2.77;;;1.60;;
25982;SDS011;13773;48.868;10.730;2023-12-20T13:46:38;5.33;;;1.80;;
25982;SDS011;13773;48.868;10.730;2023-12-20T13:49:05;3.93;;;1.60;;
25982;SDS011;13773;48.868;10.730;2023-12-20T13:51:30;3.77;;;1.50;;
25982;SDS011;13773;48.868;10.730;2023-12-20T13:53:56;5.43;;;1.73;;
25982;SDS011;13773;48.868;10.730;2023-12-20T13:56:22;4.90;;;1.80;;
25982;SDS011;13773;48.868;10.730;2023-12-20T13:58:48;5.40;;;1.77;;
25982;SDS011;13773;48.868;10.730;2023-12-20T14:01:15;6.53;;;1.63;;
25982;SDS011;13773;48.868;10.730;2023-12-20T14:03:41;4.37;;;1.80;;
25982;SDS011;13773;48.868;10.730;2023-12-20T14:06:07;4.37;;;2.07;;
25982;SDS011;13773;48.868;10.730;2023-12-20T14:08:33;4.30;;;2.40;;
25982;SDS011;13773;48.868;10.730;2023-12-20T14:10:58;2.13;;;1.67;;
25982;SDS011;13773;48.868;10.730;2023-12-20T14:13:26;3.90;;;2.00;;
25982;SDS011;13773;48.868;10.730;2023-12-20T14:15:51;4.60;;;1.60;;
25982;SDS011;13773;48.868;10.730;2023-12-20T14:18:19;4.17;;;1.70;;
25982;SDS011;13773;48.868;10.730;2023-12-20T14:20:45;4.47;;;1.57;;
25982;SDS011;13773;48.868;10.730;2023-12-20T14:23:12;3.90;;;1.70;;
25982;SDS011;13773;48.868;10.730;2023-12-20T14:25:39;3.33;;;1.67;;
25982;SDS011;13773;48.868;10.730;2023-12-20T14:28:06;6.77;;;1.97;;
25982;SDS011;13773;48.868;10.730;2023-12-20T14:30:32;4.47;;;1.93;;
25982;SDS011;13773;48.868;10.730;2023-12-20T14:32:58;6.07;;;1.73;;
25982;SDS011;13773;48.868;10.730;2023-12-20T14:35:24;4.23;;;1.80;;
25982;SDS011;13773;48.868;10.730;2023-12-20T14:37:49;4.27;;;1.77;;
25982;SDS011;13773;48.868;10.730;2023-12-20T14:40:15;2.43;;;1.93;;